Time;durP1;ratioP1;P1;durP2;ratioP2;P2;SDS_P1;SDS_P2;PMS_P1;PMS_P2;Temp;Humidity;BMP_temperature;BMP_pressure;BME280_temperature;BME280_humidity;BME280_pressure;Samples;Min_cycle;Max_cycle;Signal;HPM_P1;HPM_P2
2022/07/05 00:01:02;;;;;;;6.43;4.40;;;14.70;99.90;;;;;;5091795;28;20477;-80
2022/07/05 00:03:28;;;;;;;5.03;4.00;;;;;;;;;;5125583;27;20523;-80
2022/07/05 00:05:54;;;;;;;7.68;4.40;;;;;;;;;;5074897;28;20796;-80
2022/07/05 00:08:22;;;;;;;8.55;3.95;;;;;;;;;;5074425;28;20414;-77
2022/07/05 00:10:48;;;;;;;7.55;4.28;;;;;;;;;;5092533;28;20477;-77
2022/07/05 00:13:14;;;;;;;7.43;4.47;;;;;;;;;;5074279;28;20398;-77
2022/07/05 00:15:41;;;;;;;7.30;4.40;;;;;;;;;;5092707;28;20758;-77
2022/07/05 00:18:07;;;;;;;6.97;4.78;;;;;;;;;;5074241;28;20525;-77
2022/07/05 00:20:33;;;;;;;7.70;4.30;;;;;;;;;;5091112;28;20765;-77
2022/07/05 00:22:59;;;;;;;6.40;4.50;;;;;;;;;;5074439;28;20394;-77
2022/07/05 00:25:25;;;;;;;8.57;4.35;;;;;;;;;;5091143;28;20405;-77
2022/07/05 00:27:53;;;;;;;7.50;4.57;;;;;;;;;;5073944;28;20402;-77
2022/07/05 00:30:19;;;;;;;6.32;4.43;;;;;;;;;;5074011;28;20398;-77
2022/07/05 00:32:45;;;;;;;5.35;4.50;;;;;;;;;;5074102;28;20398;-77
2022/07/05 00:35:11;;;;;;;6.45;4.78;;;;;;;;;;5073834;28;20409;-77
2022/07/05 00:37:37;;;;;;;10.75;5.25;;;;;;;;;;5073895;28;21004;-78
2022/07/05 00:40:04;;;;;;;7.13;5.25;;;;;;;;;;5090779;28;20801;-77
2022/07/05 00:42:30;;;;;;;7.60;4.82;;;;;;;;;;5090932;28;20394;-77
2022/07/05 00:44:56;;;;;;;6.85;5.30;;;;;;;;;;5090549;28;20494;-77
2022/07/05 00:47:23;;;;;;;8.40;5.43;;;;;;;;;;5090646;28;20773;-77
2022/07/05 00:49:49;;;;;;;8.55;5.53;;;;;;;;;;5073761;28;20460;-77
2022/07/05 00:52:15;;;;;;;8.02;5.40;;;14.00;99.90;;;;;;5090778;28;20402;-77
2022/07/05 00:54:42;;;;;;;9.68;5.78;;;;;;;;;;5090667;28;20398;-77
2022/07/05 00:57:08;;;;;;;8.93;5.75;;;;;;;;;;5091712;28;20487;-80
2022/07/05 00:59:34;;;;;;;9.05;5.72;;;;;;;;;;5073828;28;20405;-80
2022/07/05 01:02:01;;;;;;;7.93;5.72;;;;;;;;;;5090474;28;20402;-81
2022/07/05 01:04:27;;;;;;;9.85;6.40;;;;;;;;;;5090700;28;20401;-81
2022/07/05 01:06:53;;;;;;;8.70;5.72;;;;;;;;;;5090547;28;20412;-80
2022/07/05 01:09:22;;;;;;;8.05;6.00;;;13.70;99.90;;;;;;5090423;28;20410;-80
2022/07/05 01:11:50;;;;;;;9.60;5.90;;;13.90;99.90;;;;;;5073662;28;20468;-80
2022/07/05 01:14:19;;;;;;;8.40;5.80;;;13.80;99.90;;;;;;5090653;28;20414;-80
2022/07/05 01:16:45;;;;;;;9.57;6.20;;;;;;;;;;5124345;28;20479;-80
2022/07/05 01:19:12;;;;;;;9.10;6.20;;;;;;;;;;5073436;28;20398;-81
2022/07/05 01:21:46;;;;;;;8.55;5.90;;;13.80;99.90;;;;;;5073373;28;20394;-80
2022/07/05 01:24:13;;;;;;;10.20;5.80;;;;;;;;;;5124265;28;20882;-80
2022/07/05 01:26:40;;;;;;;8.68;5.50;;;13.80;99.90;;;;;;5090455;28;20788;-80
2022/07/05 01:29:06;;;;;;;7.60;5.68;;;;;;;;;;5090275;28;20398;-80
2022/07/05 01:31:32;;;;;;;9.00;5.90;;;13.60;99.90;;;;;;5073330;28;20524;-80
2022/07/05 01:33:59;;;;;;;7.37;5.40;;;;;;;;;;5090858;28;20398;-80
2022/07/05 01:36:25;;;;;;;8.32;5.40;;;;;;;;;;5089678;28;20930;-80
2022/07/05 01:38:51;;;;;;;7.97;5.20;;;;;;;;;;5073462;28;20397;-80
2022/07/05 01:41:17;;;;;;;7.45;5.40;;;;;;;;;;5073154;28;20481;-80
2022/07/05 01:43:43;;;;;;;6.75;5.30;;;;;;;;;;5090208;28;20406;-81
2022/07/05 01:46:09;;;;;;;7.75;5.00;;;;;;;;;;5073300;28;20444;-80
2022/07/05 01:48:38;;;;;;;7.20;5.05;;;13.80;99.90;;;;;;5090344;28;20389;-80
2022/07/05 01:51:06;;;;;;;8.30;5.43;;;;;;;;;;5124116;28;20401;-80
2022/07/05 01:53:33;;;;;;;6.80;5.50;;;;;;;;;;5073402;28;20426;-81
2022/07/05 01:56:03;;;;;;;9.07;5.38;;;13.50;99.90;;;;;;5090401;28;20742;-81
2022/07/05 01:58:30;;;;;;;7.90;5.63;;;13.40;99.90;;;;;;5126534;27;20404;-81
2022/07/05 02:00:57;;;;;;;10.82;5.45;;;13.70;99.90;;;;;;5128234;27;20426;-81
2022/07/05 02:03:23;;;;;;;8.50;5.78;;;;;;;;;;5093934;28;20398;-81
2022/07/05 02:05:50;;;;;;;7.35;5.50;;;;;;;;;;5093761;28;20390;-81
2022/07/05 02:08:17;;;;;;;8.13;5.80;;;13.60;99.90;;;;;;5076876;28;20935;-81
2022/07/05 02:10:43;;;;;;;8.43;5.60;;;;;;;;;;5093747;28;20486;-81
2022/07/05 02:13:09;;;;;;;7.22;5.90;;;;;;;;;;5093485;28;20451;-81
2022/07/05 02:15:40;;;;;;;9.63;6.38;;;13.50;99.90;;;;;;5076743;28;20481;-81
2022/07/05 02:18:07;;;;;;;9.70;6.53;;;13.30;99.90;;;;;;5093488;28;20427;-81
2022/07/05 02:20:34;;;;;;;9.82;6.53;;;;;;;;;;5093810;28;20398;-80
2022/07/05 02:23:00;;;;;;;9.10;7.07;;;;;;;;;;5076573;28;20486;-80
2022/07/05 02:25:26;;;;;;;9.38;6.68;;;;;;;;;;5077131;28;20394;-81
2022/07/05 02:27:53;;;;;;;10.75;6.78;;;12.90;99.90;;;;;;5093413;28;20398;-81
2022/07/05 02:30:19;;;;;;;9.27;6.53;;;;;;;;;;5093563;28;20477;-81
2022/07/05 02:32:45;;;;;;;11.30;6.50;;;;;;;;;;5093446;28;20420;-81
2022/07/05 02:35:12;;;;;;;10.65;7.00;;;13.10;99.90;;;;;;5076018;28;20481;-81
2022/07/05 02:37:41;;;;;;;11.65;7.35;;;;;;;;;;5110000;28;20422;-81
2022/07/05 02:40:13;;;;;;;10.05;7.10;;;13.30;99.90;;;;;;5076537;28;20433;-81
2022/07/05 02:42:39;;;;;;;10.57;7.25;;;13.30;99.90;;;;;;5092917;28;20901;-80
2022/07/05 02:45:06;;;;;;;10.20;7.40;;;;;;;;;;5092794;28;20398;-81
2022/07/05 02:47:34;;;;;;;9.88;7.40;;;13.30;99.90;;;;;;5110004;27;20434;-80
2022/07/05 02:50:09;;;;;;;8.90;7.00;;;;;;;;;;5093051;28;20408;-81
2022/07/05 02:52:36;;;;;;;10.73;7.50;;;;;;;;;;5093014;28;20402;-80
2022/07/05 02:55:03;;;;;;;9.75;8.15;;;;;;;;;;5093045;28;20452;-81
2022/07/05 02:57:29;;;;;;;10.60;7.47;;;;;;;;;;5092824;28;20425;-81
2022/07/05 02:59:56;;;;;;;10.50;7.30;;;13.20;99.90;;;;;;5109872;28;20495;-81
2022/07/05 03:02:22;;;;;;;9.70;7.67;;;;;;;;;;5059232;28;20394;-81
2022/07/05 03:04:49;;;;;;;8.95;7.15;;;;;;;;;;5076560;28;20405;-81
2022/07/05 03:07:15;;;;;;;11.60;7.28;;;;;;;;;;5092737;28;20925;-81
2022/07/05 03:09:41;;;;;;;8.68;7.45;;;;;;;;;;5091470;28;20406;-81
2022/07/05 03:12:07;;;;;;;12.00;7.55;;;;;;;;;;5075860;28;20434;-77
2022/07/05 03:14:33;;;;;;;11.15;7.65;;;;;;;;;;5075557;28;20432;-78
2022/07/05 03:16:59;;;;;;;10.13;7.40;;;;;;;;;;5075498;28;20418;-77
2022/07/05 03:19:25;;;;;;;11.25;7.80;;;;;;;;;;5092425;28;20897;-77
2022/07/05 03:21:51;;;;;;;9.52;7.90;;;;;;;;;;5092418;28;20421;-77
2022/07/05 03:24:18;;;;;;;9.77;7.35;;;;;;;;;;5075327;28;20905;-77
2022/07/05 03:26:44;;;;;;;10.80;7.38;;;;;;;;;;5075277;28;20410;-77
2022/07/05 03:29:10;;;;;;;10.10;7.43;;;;;;;;;;5092223;28;20452;-77
2022/07/05 03:31:36;;;;;;;10.60;7.20;;;;;;;;;;5091915;28;20493;-77
2022/07/05 03:34:02;;;;;;;11.30;7.50;;;;;;;;;;5075241;28;20459;-77
2022/07/05 03:36:28;;;;;;;10.25;7.28;;;;;;;;;;5091850;28;20422;-77
2022/07/05 03:38:54;;;;;;;9.43;7.78;;;;;;;;;;5092064;28;20390;-77
2022/07/05 03:41:20;;;;;;;8.85;7.55;;;;;;;;;;5091680;28;20426;-77
2022/07/05 03:43:46;;;;;;;10.27;7.70;;;;;;;;;;5093032;28;20422;-77
2022/07/05 03:46:12;;;;;;;11.98;8.00;;;;;;;;;;5074892;28;20406;-77
2022/07/05 03:48:39;;;;;;;10.18;7.60;;;;;;;;;;5091897;28;20398;-77
2022/07/05 03:51:05;;;;;;;11.63;8.25;;;;;;;;;;5091520;28;20881;-77
2022/07/05 03:53:31;;;;;;;11.85;8.10;;;;;;;;;;5091685;28;20951;-77
2022/07/05 03:55:57;;;;;;;10.40;8.50;;;;;;;;;;5092834;28;20402;-77
2022/07/05 03:58:23;;;;;;;11.18;8.38;;;;;;;;;;5092967;28;20421;-76
2022/07/05 04:00:49;;;;;;;11.40;8.48;;;;;;;;;;5091495;28;20397;-77
2022/07/05 04:03:15;;;;;;;12.95;8.02;;;;;;;;;;5091564;28;20877;-77
2022/07/05 04:05:41;;;;;;;10.70;7.72;;;;;;;;;;5092698;28;20390;-77
2022/07/05 04:08:07;;;;;;;9.10;7.57;;;;;;;;;;5091274;28;20413;-76
2022/07/05 04:10:33;;;;;;;9.95;7.65;;;;;;;;;;5092521;28;20475;-77
2022/07/05 04:12:59;;;;;;;10.20;7.40;;;;;;;;;;5092461;28;20474;-76
2022/07/05 04:15:25;;;;;;;10.70;7.63;;;;;;;;;;5092590;28;20860;-76
2022/07/05 04:17:55;;;;;;;9.43;7.30;;;;;;;;;;5091094;28;20418;-77
2022/07/05 04:20:22;;;;;;;9.35;7.32;;;;;;;;;;5090699;28;20909;-77
2022/07/05 04:22:48;;;;;;;11.00;8.05;;;;;;;;;;5092319;28;20389;-77
2022/07/05 04:25:18;;;;;;;13.55;7.90;;;;;;;;;;5092184;28;20398;-77
2022/07/05 04:27:44;;;;;;;9.90;7.78;;;;;;;;;;5092311;28;20398;-76
2022/07/05 04:30:12;;;;;;;10.80;8.07;;;;;;;;;;5092053;28;20480;-77
2022/07/05 04:32:38;;;;;;;10.82;7.78;;;;;;;;;;5073829;28;20398;-77
2022/07/05 04:35:04;;;;;;;10.02;7.47;;;;;;;;;;5092170;28;20455;-77
2022/07/05 04:37:31;;;;;;;9.40;7.30;;;;;;;;;;5073597;28;20422;-77
2022/07/05 04:39:57;;;;;;;9.98;7.45;;;;;;;;;;5090711;28;20405;-77
2022/07/05 04:42:23;;;;;;;9.95;7.55;;;;;;;;;;5073660;28;20398;-77
2022/07/05 04:44:49;;;;;;;9.50;7.30;;;;;;;;;;5090601;28;20405;-76
2022/07/05 04:47:15;;;;;;;9.18;7.15;;;;;;;;;;5090713;28;20704;-76
2022/07/05 04:49:41;;;;;;;9.40;7.25;;;;;;;;;;5124857;27;20746;-76
2022/07/05 04:52:07;;;;;;;8.10;6.47;;;;;;;;;;5090436;28;20413;-76
2022/07/05 04:54:33;;;;;;;8.43;6.45;;;;;;;;;;5091618;28;20434;-76
2022/07/05 04:56:59;;;;;;;9.20;6.50;;;;;;;;;;5091366;28;20432;-76
2022/07/05 04:59:25;;;;;;;7.47;6.45;;;;;;;;;;5091655;28;20868;-76
2022/07/05 05:01:51;;;;;;;9.55;6.07;;;;;;;;;;5090299;28;20406;-76
2022/07/05 05:04:17;;;;;;;9.68;6.00;;;;;;;;;;5090477;28;21034;-76
2022/07/05 05:06:43;;;;;;;9.70;5.63;;;;;;;;;;5090409;28;20438;-76
2022/07/05 05:09:10;;;;;;;10.32;5.53;;;;;;;;;;5090098;28;20401;-76
2022/07/05 05:11:36;;;;;;;8.77;5.70;;;;;;;;;;5091413;28;20523;-76
2022/07/05 05:14:02;;;;;;;7.38;5.65;;;;;;;;;;5091560;28;20517;-76
2022/07/05 05:16:28;;;;;;;7.45;5.43;;;;;;;;;;5091245;28;20739;-77
2022/07/05 05:18:54;;;;;;;7.47;5.10;;;;;;;;;;5091405;28;20390;-76
2022/07/05 05:21:20;;;;;;;7.43;4.90;;;;;;;;;;5091257;28;20412;-76
2022/07/05 05:23:46;;;;;;;7.82;5.10;;;;;;;;;;5091340;28;20390;-77
2022/07/05 05:26:12;;;;;;;6.60;5.38;;;;;;;;;;5091470;28;20477;-76
2022/07/05 05:28:38;;;;;;;9.20;5.43;;;;;;;;;;5089912;28;20391;-76
2022/07/05 05:31:05;;;;;;;7.63;5.07;;;;;;;;;;5123950;28;20492;-76
2022/07/05 05:33:31;;;;;;;8.02;5.53;;;;;;;;;;5093833;28;20386;-76
2022/07/05 05:35:57;;;;;;;8.57;5.45;;;;;;;;;;5095192;28;20417;-76
2022/07/05 05:38:23;;;;;;;7.63;5.18;;;;;;;;;;5094032;28;20504;-76
2022/07/05 05:40:49;;;;;;;8.18;5.43;;;;;;;;;;5095186;28;20398;-76
2022/07/05 05:43:15;;;;;;;7.50;5.05;;;;;;;;;;5093802;28;20877;-76
2022/07/05 05:45:41;;;;;;;6.75;4.82;;;;;;;;;;5093838;28;20430;-76
2022/07/05 05:48:07;;;;;;;7.78;5.05;;;;;;;;;;5095139;28;20398;-76
2022/07/05 05:50:34;;;;;;;6.85;4.90;;;;;;;;;;5093720;28;20414;-76
2022/07/05 05:53:01;;;;;;;6.82;4.80;;;;;;;;;;5093739;28;20486;-76
2022/07/05 05:55:27;;;;;;;7.32;5.00;;;;;;;;;;5095031;28;20752;-76
2022/07/05 05:57:54;;;;;;;6.55;4.70;;;;;;;;;;5093523;28;20421;-76
2022/07/05 06:00:21;;;;;;;6.80;4.88;;;;;;;;;;5094808;28;20477;-76
2022/07/05 06:02:49;;;;;;;7.43;4.80;;;;;;;;;;5094690;28;20417;-77
2022/07/05 06:05:15;;;;;;;6.07;3.88;;;;;;;;;;5127747;27;20470;-77
2022/07/05 06:07:51;;;;;;;5.47;3.42;;;;;;;;;;5076337;28;20406;-77
2022/07/05 06:10:18;;;;;;;4.95;3.30;;;;;;;;;;5093528;28;20401;-76
2022/07/05 06:12:45;;;;;;;6.97;3.10;;;;;;;;;;5094661;28;20429;-76
2022/07/05 06:15:11;;;;;;;6.03;3.40;;;;;;;;;;5094540;28;20397;-76
2022/07/05 06:17:37;;;;;;;7.05;3.25;;;;;;;;;;5094543;28;20422;-76
2022/07/05 06:20:33;;;;;;;6.65;3.35;;;;;;;;;;5094599;28;20707;-76
2022/07/05 06:23:00;;;;;;;7.82;3.08;;;16.60;99.90;;;;;;5080467;28;20477;-76
2022/07/05 06:25:26;;;;;;;5.45;3.00;;;;;;;;;;5127175;27;20894;-76
2022/07/05 06:27:56;;;;;;;7.87;3.07;;;;;;;;;;5076295;28;20406;-77
2022/07/05 06:30:23;;;;;;;5.78;2.83;;;;;;;;;;5094258;28;20405;-76
2022/07/05 06:32:50;;;;;;;6.03;3.00;;;;;;;;;;5093253;28;20796;-77
2022/07/05 06:35:16;;;;;;;8.02;3.75;;;;;;;;;;5094169;28;20381;-76
2022/07/05 06:37:45;;;;;;;5.82;2.80;;;;;;;;;;5092778;28;20912;-76
2022/07/05 06:40:12;;;;;;;7.03;2.25;;;;;;;;;;5094142;28;20401;-76
2022/07/05 06:42:38;;;;;;;3.97;1.60;;;;;;;;;;5093960;28;20401;-76
2022/07/05 06:45:08;;;;;;;4.93;1.73;;;;;;;;;;5094225;28;20518;-77
2022/07/05 06:47:34;;;;;;;5.55;1.60;;;;;;;;;;5094183;28;20402;-76
2022/07/05 06:50:02;;;;;;;6.65;1.83;;;;;;;;;;5094100;28;20398;-76
2022/07/05 06:52:29;;;;;;;4.95;1.38;;;;;;;;;;5092907;28;20874;-77
2022/07/05 06:54:55;;;;;;;5.65;1.55;;;;;;;;;;5126729;27;20398;-77
2022/07/05 06:57:22;;;;;;;4.75;1.30;;;;;;;;;;5093769;28;20414;-77
2022/07/05 06:59:48;;;;;;;5.32;1.52;;;;;;;;;;5092714;28;20485;-77
2022/07/05 07:02:15;;;;;;;3.05;1.20;;;;;;;;;;5093891;28;20393;-76
2022/07/05 07:04:41;;;;;;;4.72;1.30;;;;;;;;;;5094019;28;20448;-77
2022/07/05 07:09:17;;;;;;;4.47;1.00;;;;;;;;;;5092689;28;20401;-77
2022/07/05 07:09:53;;;;;;;4.10;1.30;;;;;;;;;;5092582;28;20414;-77
2022/07/05 07:12:19;;;;;;;4.57;1.30;;;;;;;;;;5093625;28;20886;-77
2022/07/05 07:14:45;;;;;;;5.47;1.30;;;;;;;;;;5093572;28;20401;-76
2022/07/05 07:17:11;;;;;;;5.97;1.60;;;;;;;;;;5093707;28;20441;-76
2022/07/05 07:19:37;;;;;;;4.60;1.10;;;;;;;;;;5093671;28;20416;-76
2022/07/05 07:22:03;;;;;;;5.07;1.23;;;;;;;;;;5093603;28;20418;-76
2022/07/05 07:24:29;;;;;;;4.50;1.20;;;;;;;;;;5092153;28;20402;-77
2022/07/05 07:27:04;;;;;;;4.35;1.48;;;;;;;;;;5093487;28;20433;-77
2022/07/05 07:29:31;;;;;;;4.55;1.40;;;;;;;;;;5126541;27;20415;-77
2022/07/05 07:31:58;;;;;;;5.18;1.35;;;;;;;;;;5093469;28;20398;-77
2022/07/05 07:34:24;;;;;;;4.80;1.47;;;;;;;;;;5093192;28;20443;-77
2022/07/05 07:36:51;;;;;;;5.88;1.45;;;;;;;;;;5091697;28;20505;-77
2022/07/05 07:39:17;;;;;;;6.40;1.30;;;;;;;;;;5091987;28;20405;-76
2022/07/05 07:41:43;;;;;;;7.07;1.70;;;;;;;;;;5092072;28;20420;-77
2022/07/05 07:44:09;;;;;;;4.45;1.50;;;;;;;;;;5126202;27;20470;-77
2022/07/05 07:46:36;;;;;;;7.95;1.52;;;;;;;;;;5093084;28;20504;-77
2022/07/05 07:49:02;;;;;;;5.28;1.50;;;;;;;;;;5093027;28;20420;-77
2022/07/05 07:51:28;;;;;;;6.45;1.50;;;;;;;;;;5074866;28;20398;-77
2022/07/05 07:53:54;;;;;;;4.68;1.20;;;;;;;;;;5091716;28;20430;-77
2022/07/05 07:56:20;;;;;;;3.63;1.40;;;;;;;;;;5090938;28;20409;-77
2022/07/05 07:58:47;;;;;;;4.53;1.48;;;18.50;99.90;;;;;;5091571;28;20947;-76
2022/07/05 08:01:14;;;;;;;4.93;1.35;;;;;;;;;;5125657;27;20481;-77
2022/07/05 08:03:43;;;;;;;6.70;1.60;;;;;;;;;;5125796;27;20406;-76
2022/07/05 08:06:13;;;;;;;5.35;1.35;;;;;;;;;;5092610;28;20390;-76
2022/07/05 08:08:40;;;;;;;4.85;1.40;;;;;;;;;;5125618;27;20435;-76
2022/07/05 08:11:06;;;;;;;6.18;1.45;;;;;;;;;;5092757;28;20394;-77
2022/07/05 08:13:33;;;;;;;4.85;1.30;;;;;;;;;;5092631;28;20742;-77
2022/07/05 08:15:59;;;;;;;4.95;1.33;;;;;;;;;;5074405;28;20401;-77
2022/07/05 08:23:55;;;;;;;4.38;1.30;;;;;;;;;;5092315;28;20398;-77
2022/07/05 08:26:22;;;;;;;4.00;1.38;;;;;;;;;;5092327;28;20485;-77
2022/07/05 08:28:48;;;;;;;5.50;1.50;;;;;;;;;;5092198;28;20406;-77
2022/07/05 08:31:14;;;;;;;4.15;1.30;;;;;;;;;;5091212;28;20402;-77
2022/07/05 08:33:40;;;;;;;6.82;1.50;;;;;;;;;;5092380;28;20527;-77
2022/07/05 08:36:07;;;;;;;6.05;1.20;;;;;;;;;;5091936;28;20401;-77
2022/07/05 08:38:33;;;;;;;3.85;1.20;;;;;;;;;;5090925;28;20433;-77
2022/07/05 08:41:01;;;;;;;3.13;1.33;;;19.40;99.90;;;;;;5091970;28;20398;-77
2022/07/05 08:43:28;;;;;;;4.53;1.33;;;19.80;99.90;;;;;;5107773;28;20449;-77
2022/07/05 08:45:55;;;;;;;2.95;1.20;;;;;;;;;;5124741;27;20426;-77
2022/07/05 08:48:22;;;;;;;3.10;1.25;;;;;;;;;;5091915;28;20433;-77
2022/07/05 08:50:50;;;;;;;5.03;1.57;;;;;;;;;;5091879;28;20402;-78
2022/07/05 08:53:18;;;;;;;4.70;1.40;;;19.80;99.90;;;;;;5090749;28;20394;-77
2022/07/05 08:55:45;;;;;;;3.55;1.13;;;19.90;99.90;;;;;;5090706;28;20762;-77
2022/07/05 08:58:11;;;;;;;4.07;1.35;;;;;;;;;;5107374;28;20457;-77
2022/07/05 09:00:42;;;;;;;4.55;1.60;;;20.00;99.90;;;;;;5091749;28;20401;-77
2022/07/05 09:03:08;;;;;;;4.35;1.45;;;;;;;;;;5107734;28;20458;-76
2022/07/05 09:05:43;;;;;;;4.38;1.10;;;19.80;99.90;;;;;;5090799;28;20739;-77
2022/07/05 09:08:15;;;;;;;3.88;1.10;;;;;;;;;;5123898;27;20759;-77
2022/07/05 09:10:43;;;;;;;3.38;1.30;;;;;;;;;;5090145;28;20435;-77
2022/07/05 09:13:09;;;;;;;3.70;1.60;;;;;;;;;;5073417;28;20413;-77
2022/07/05 09:15:38;;;;;;;3.22;1.20;;;;;;;;;;5091569;28;20394;-77
2022/07/05 09:18:05;;;;;;;5.43;1.40;;;;;;;;;;5091425;28;20430;-76
2022/07/05 09:20:31;;;;;;;4.95;1.25;;;;;;;;;;5091467;28;21175;-77
2022/07/05 09:22:57;;;;;;;5.63;1.52;;;;;;;;;;5090288;28;20430;-77
2022/07/05 09:25:24;;;;;;;4.63;1.30;;;20.30;99.90;;;;;;5091313;28;20489;-77
2022/07/05 09:27:54;;;;;;;5.50;1.50;;;19.90;99.90;;;;;;5091614;28;20402;-77
2022/07/05 09:30:26;;;;;;;4.05;1.27;;;;;;;;;;5124296;28;20413;-77
2022/07/05 09:33:03;;;;;;;4.47;1.25;;;20.80;99.90;;;;;;5091277;28;20455;-77
2022/07/05 09:35:30;;;;;;;3.70;1.27;;;20.80;99.90;;;;;;5091291;28;20735;-77
2022/07/05 09:37:56;;;;;;;3.20;1.38;;;;;;;;;;5091317;28;20449;-77
2022/07/05 09:40:22;;;;;;;5.18;1.27;;;;;;;;;;5090172;28;20908;-78
2022/07/05 09:42:48;;;;;;;5.70;1.30;;;;;;;;;;5089928;28;20477;-77
2022/07/05 09:45:24;;;;;;;5.30;1.42;;;20.80;99.90;;;;;;5091463;28;20486;-77
2022/07/05 09:47:50;;;;;;;5.28;1.27;;;;;;;;;;5091241;28;20877;-77
2022/07/05 09:50:33;;;;;;;5.72;1.60;;;;;;;;;;5091171;28;20429;-77
2022/07/05 09:52:59;;;;;;;3.63;1.40;;;;;;;;;;5091153;28;20955;-76
2022/07/05 09:55:26;;;;;;;4.32;1.42;;;;;;;;;;5073166;28;20903;-77
2022/07/05 09:57:53;;;;;;;4.57;1.38;;;;;;;;;;5089730;28;20513;-76
2022/07/05 10:00:23;;;;;;;3.55;1.23;;;;;;;;;;5091246;28;20424;-76
2022/07/05 10:02:50;;;;;;;4.47;1.30;;;;;;;;;;5091092;28;20390;-77
2022/07/05 10:05:27;;;;;;;5.80;1.63;;;20.50;99.90;;;;;;5091161;28;20394;-77
2022/07/05 10:07:56;;;;;;;4.45;1.33;;;20.70;99.90;;;;;;5091292;28;20394;-76
2022/07/05 10:10:24;;;;;;;3.83;1.20;;;20.60;99.90;;;;;;5091057;28;20738;-77
2022/07/05 10:12:52;;;;;;;3.38;1.13;;;20.60;99.90;;;;;;5089889;28;20436;-77
2022/07/05 10:15:21;;;;;;;4.23;1.30;;;20.40;99.90;;;;;;5123864;28;20975;-77
2022/07/05 10:18:06;;;;;;;4.95;1.30;;;20.50;99.90;;;;;;5123817;28;20430;-77
2022/07/05 10:20:41;;;;;;;2.53;1.10;;;20.20;99.90;;;;;;5094766;28;20765;-77
2022/07/05 10:23:18;;;;;;;4.72;1.20;;;20.60;99.90;;;;;;5094611;28;20401;-77
2022/07/05 10:25:49;;;;;;;4.50;1.35;;;;;;;;;;5094505;28;20397;-77
2022/07/05 10:28:17;;;;;;;4.60;1.40;;;20.80;99.90;;;;;;5076401;28;20406;-77
2022/07/05 10:30:45;;;;;;;3.97;1.40;;;20.30;99.90;;;;;;5094731;28;20398;-77
2022/07/05 10:33:14;;;;;;;3.10;1.10;;;;;;;;;;5093171;28;21002;-78
2022/07/05 10:35:43;;;;;;;4.65;1.20;;;20.80;99.90;;;;;;5093162;28;20401;-77
2022/07/05 10:38:10;;;;;;;3.80;1.30;;;21.20;99.90;;;;;;5127224;27;20500;-77
2022/07/05 10:40:36;;;;;;;5.83;1.30;;;21.30;99.90;;;;;;5094359;28;20878;-77
2022/07/05 10:43:04;;;;;;;4.30;1.30;;;21.20;99.90;;;;;;5127238;27;20398;-78
2022/07/05 10:45:30;;;;;;;4.28;1.40;;;;;;;;;;5110146;28;20394;-77
2022/07/05 10:48:24;;;;;;;3.60;1.20;;;21.50;99.90;;;;;;5093074;28;20402;-77
2022/07/05 10:51:03;;;;;;;4.57;0.98;;;21.70;99.90;;;;;;5126966;27;20908;-77
2022/07/05 10:53:35;;;;;;;3.78;1.00;;;22.00;99.90;;;;;;5127256;27;20860;-77
2022/07/05 10:56:04;;;;;;;4.72;1.30;;;22.20;99.90;;;;;;5127104;27;20961;-77
2022/07/05 10:58:42;;;;;;;4.57;1.67;;;21.50;99.90;;;;;;5126805;27;20990;-77
2022/07/05 11:01:20;;;;;;;5.22;1.40;;;21.20;99.90;;;;;;5093933;28;20393;-77
2022/07/05 11:04:05;;;;;;;3.67;1.30;;;21.10;99.90;;;;;;5094177;28;20390;-76
2022/07/05 11:06:41;;;;;;;4.07;1.10;;;21.60;99.90;;;;;;5092622;28;20511;-77
2022/07/05 11:09:10;;;;;;;5.22;1.35;;;21.60;99.90;;;;;;5092525;28;20422;-76
2022/07/05 11:11:42;;;;;;;3.50;1.15;;;21.20;99.90;;;;;;5126370;27;20451;-77
2022/07/05 11:14:20;;;;;;;5.65;1.30;;;21.00;99.90;;;;;;5126538;27;20799;-77
2022/07/05 11:16:48;;;;;;;2.78;1.02;;;20.90;99.90;;;;;;5126661;27;20426;-77
2022/07/05 11:19:17;;;;;;;4.07;1.10;;;21.20;99.90;;;;;;5075576;28;20437;-77
2022/07/05 11:22:05;;;;;;;3.67;1.00;;;21.30;99.90;;;;;;5109436;28;20390;-77
2022/07/05 11:24:36;;;;;;;3.08;1.10;;;21.20;99.90;;;;;;5092400;28;20477;-77
2022/07/05 11:27:12;;;;;;;2.85;1.10;;;21.50;99.90;;;;;;5126452;27;20905;-78
2022/07/05 11:29:51;;;;;;;2.20;0.88;;;21.50;99.90;;;;;;5125920;27;20792;-77
2022/07/05 11:32:17;;;;;;;2.53;0.93;;;21.50;99.90;;;;;;5093170;28;20405;-77
2022/07/05 11:34:48;;;;;;;2.28;0.90;;;22.20;99.90;;;;;;5092470;28;20416;-76
2022/07/05 11:37:13;;;;;;;4.00;1.10;;;21.90;99.90;;;;;;5093159;28;20820;-77
2022/07/05 11:39:43;;;;;;;2.43;1.00;;;22.30;99.90;;;;;;5126319;27;20394;-77
2022/07/05 11:42:10;;;;;;;2.42;0.80;;;21.90;99.90;;;;;;5092108;28;20429;-77
2022/07/05 11:44:40;;;;;;;2.63;1.00;;;21.80;99.90;;;;;;5092063;28;20406;-77
2022/07/05 11:47:06;;;;;;;1.45;0.80;;;22.30;99.90;;;;;;5091836;28;20889;-77
2022/07/05 11:49:32;;;;;;;3.42;1.30;;;;;;;;;;5092358;28;20456;-77
2022/07/05 11:52:00;;;;;;;3.42;0.93;;;22.40;99.90;;;;;;5091836;28;20402;-77
2022/07/05 11:54:31;;;;;;;6.63;1.40;;;22.40;99.90;;;;;;5092017;28;20410;-77
2022/07/05 11:56:58;;;;;;;5.53;1.30;;;21.60;99.90;;;;;;5091606;28;20925;-77
2022/07/05 11:59:25;;;;;;;5.33;1.20;;;21.40;99.90;;;;;;5109014;28;20510;-77
2022/07/05 12:01:52;;;;;;;4.10;1.20;;;20.90;99.90;;;;;;5125774;27;20446;-77
2022/07/05 12:04:26;;;;;;;4.07;1.17;;;21.10;99.90;;;;;;5091646;28;20398;-77
2022/07/05 12:06:53;;;;;;;6.03;1.45;;;20.90;99.90;;;;;;5108989;28;20402;-77
2022/07/05 12:12:43;;;;;;;6.07;1.40;;;;;;;;;;5125493;27;20491;-77
2022/07/05 12:15:16;;;;;;;4.03;1.23;;;21.10;99.90;;;;;;5074542;28;20739;-78
2022/07/05 12:17:47;;;;;;;3.47;1.15;;;20.90;99.90;;;;;;5108137;28;20478;-77
2022/07/05 12:20:15;;;;;;;3.28;1.00;;;21.40;99.90;;;;;;5091241;28;20477;-77
2022/07/05 12:22:43;;;;;;;3.65;1.20;;;22.00;99.90;;;;;;5125329;27;20451;-77
2022/07/05 12:25:12;;;;;;;2.80;0.90;;;21.80;99.90;;;;;;5108437;28;20853;-78
2022/07/05 12:27:40;;;;;;;4.28;1.25;;;22.00;99.90;;;;;;5091137;28;20398;-78
2022/07/05 12:30:09;;;;;;;3.15;1.17;;;21.90;99.90;;;;;;5091114;28;20413;-77
2022/07/05 12:32:56;;;;;;;4.97;1.10;;;21.90;99.90;;;;;;5124950;27;20893;-78
2022/07/05 12:35:44;;;;;;;2.42;1.05;;;21.90;99.90;;;;;;5124906;27;20402;-78
2022/07/05 12:38:16;;;;;;;3.03;1.00;;;21.80;99.90;;;;;;5107734;28;20421;-78
2022/07/05 12:40:43;;;;;;;2.45;0.90;;;21.70;99.90;;;;;;5074725;28;20398;-78
2022/07/05 12:43:11;;;;;;;3.92;1.20;;;22.20;99.90;;;;;;5090456;28;20402;-78
2022/07/05 12:45:44;;;;;;;5.30;1.20;;;21.90;99.90;;;;;;5073933;28;20409;-77
2022/07/05 12:48:11;;;;;;;2.85;1.10;;;21.90;99.90;;;;;;5107755;28;20440;-78
2022/07/05 12:50:51;;;;;;;2.75;1.10;;;22.10;99.90;;;;;;5124834;27;20762;-77
2022/07/05 12:58:57;;;;;;;4.60;1.30;;;21.90;99.90;;;;;;5124568;27;20437;-78
2022/07/05 13:01:23;;;;;;;3.78;1.30;;;22.10;99.90;;;;;;5090922;28;20487;-78
2022/07/05 13:04:18;;;;;;;3.72;1.30;;;21.90;99.90;;;;;;5124763;27;20489;-78
2022/07/05 13:06:59;;;;;;;3.60;1.30;;;21.30;99.90;;;;;;5077588;28;20485;-78
2022/07/05 13:09:37;;;;;;;4.33;1.70;;;21.30;99.90;;;;;;5124412;27;20455;-78
2022/07/05 13:12:23;;;;;;;5.30;1.58;;;21.50;99.90;;;;;;5124789;27;20398;-78
2022/07/05 13:14:51;;;;;;;3.88;1.27;;;21.30;99.90;;;;;;5090727;28;20406;-77
2022/07/05 13:17:18;;;;;;;3.30;1.30;;;21.70;99.90;;;;;;5090379;28;20432;-78
2022/07/05 13:19:46;;;;;;;4.35;1.50;;;21.10;99.90;;;;;;5090337;28;20410;-78
2022/07/05 13:22:12;;;;;;;7.07;1.80;;;;;;;;;;5073692;28;20451;-77
2022/07/05 13:24:38;;;;;;;3.90;1.30;;;20.70;99.90;;;;;;5073389;28;20485;-77
2022/07/05 13:27:05;;;;;;;4.18;1.40;;;21.00;99.90;;;;;;5107188;28;20398;-77
2022/07/05 13:29:31;;;;;;;3.22;1.20;;;21.30;99.90;;;;;;5090313;28;20412;-78
2022/07/05 13:31:57;;;;;;;4.68;1.55;;;21.80;99.90;;;;;;5090084;28;20401;-78
2022/07/05 13:34:26;;;;;;;3.05;1.30;;;21.70;99.90;;;;;;5057060;28;20406;-78
2022/07/05 13:36:56;;;;;;;4.88;1.30;;;21.50;99.90;;;;;;5073715;28;20820;-78
2022/07/05 13:39:23;;;;;;;3.28;1.20;;;21.50;99.90;;;;;;5089370;28;20406;-78
2022/07/05 13:41:51;;;;;;;3.53;1.10;;;21.60;99.90;;;;;;5089970;28;20394;-78
2022/07/05 13:44:17;;;;;;;5.18;1.30;;;21.20;99.90;;;;;;5089973;28;20410;-78
2022/07/05 13:46:43;;;;;;;5.70;1.80;;;21.00;99.90;;;;;;5073441;28;20398;-77
2022/07/05 13:49:08;;;;;;;4.55;1.40;;;21.30;99.90;;;;;;5090153;28;20409;-77
2022/07/05 13:51:34;;;;;;;2.80;1.40;;;21.20;99.90;;;;;;5107342;28;20400;-77
2022/07/05 13:54:00;;;;;;;3.20;1.40;;;21.20;99.90;;;;;;5125593;27;20435;-77
2022/07/05 13:56:27;;;;;;;5.22;1.35;;;20.90;99.90;;;;;;5128156;27;20429;-78
2022/07/05 13:58:53;;;;;;;4.70;1.38;;;;;;;;;;5110920;28;20418;-77
2022/07/05 14:01:22;;;;;;;2.15;1.10;;;21.00;99.90;;;;;;5076822;28;20405;-78
2022/07/05 14:03:47;;;;;;;3.60;1.30;;;20.90;99.90;;;;;;5076781;28;20440;-77
2022/07/05 14:06:13;;;;;;;2.77;1.10;;;20.50;99.90;;;;;;5077300;28;20429;-78
2022/07/05 14:08:42;;;;;;;3.45;1.25;;;20.40;99.90;;;;;;5128058;27;20402;-77
2022/07/05 14:11:09;;;;;;;4.10;1.20;;;;;;;;;;5127767;27;20410;-77
2022/07/05 14:13:35;;;;;;;3.33;1.20;;;20.20;99.90;;;;;;5076928;28;20750;-78
2022/07/05 14:16:01;;;;;;;4.22;1.35;;;20.40;99.90;;;;;;5093776;28;20402;-78